sensor_id;sensor_type;location;lat;lon;timestamp;P1;durP1;ratioP1;P2;durP2;ratioP2
16975;SDS011;8604;48.148;-1.786;2022-11-15T00:01:56;11.20;;;2.37;;
16975;SDS011;8604;48.148;-1.786;2022-11-15T00:04:43;9.40;;;2.47;;
16975;SDS011;8604;48.148;-1.786;2022-11-15T00:07:30;9.47;;;2.20;;
16975;SDS011;8604;48.148;-1.786;2022-11-15T00:10:37;8.83;;;2.30;;
16975;SDS011;8604;48.148;-1.786;2022-11-15T00:13:26;9.77;;;2.47;;
16975;SDS011;8604;48.148;-1.786;2022-11-15T00:16:16;10.27;;;2.57;;
16975;SDS011;8604;48.148;-1.786;2022-11-15T00:19:03;10.27;;;2.30;;
16975;SDS011;8604;48.148;-1.786;2022-11-15T00:21:50;9.43;;;2.40;;
16975;SDS011;8604;48.148;-1.786;2022-11-15T00:24:37;10.90;;;2.40;;
16975;SDS011;8604;48.148;-1.786;2022-11-15T00:27:23;9.80;;;2.30;;
16975;SDS011;8604;48.148;-1.786;2022-11-15T00:30:12;10.47;;;2.47;;
16975;SDS011;8604;48.148;-1.786;2022-11-15T00:33:01;9.67;;;2.23;;
16975;SDS011;8604;48.148;-1.786;2022-11-15T00:35:48;12.23;;;2.50;;
16975;SDS011;8604;48.148;-1.786;2022-11-15T00:38:35;10.20;;;2.20;;
16975;SDS011;8604;48.148;-1.786;2022-11-15T00:41:24;9.40;;;2.50;;
16975;SDS011;8604;48.148;-1.786;2022-11-15T00:44:11;9.50;;;2.47;;
16975;SDS011;8604;48.148;-1.786;2022-11-15T00:46:59;7.63;;;2.50;;
16975;SDS011;8604;48.148;-1.786;2022-11-15T00:49:47;8.07;;;2.23;;
16975;SDS011;8604;48.148;-1.786;2022-11-15T00:52:34;11.20;;;2.60;;
16975;SDS011;8604;48.148;-1.786;2022-11-15T00:55:21;9.27;;;2.40;;
16975;SDS011;8604;48.148;-1.786;2022-11-15T00:58:08;8.60;;;2.40;;
16975;SDS011;8604;48.148;-1.786;2022-11-15T01:00:55;7.00;;;2.20;;
16975;SDS011;8604;48.148;-1.786;2022-11-15T01:03:44;6.50;;;2.20;;
16975;SDS011;8604;48.148;-1.786;2022-11-15T01:06:31;10.50;;;2.20;;
16975;SDS011;8604;48.148;-1.786;2022-11-15T01:09:18;11.93;;;2.50;;
16975;SDS011;8604;48.148;-1.786;2022-11-15T01:12:05;10.13;;;2.20;;
16975;SDS011;8604;48.148;-1.786;2022-11-15T01:14:52;8.40;;;2.20;;
16975;SDS011;8604;48.148;-1.786;2022-11-15T01:17:39;11.17;;;2.37;;
16975;SDS011;8604;48.148;-1.786;2022-11-15T01:20:28;9.63;;;2.03;;
16975;SDS011;8604;48.148;-1.786;2022-11-15T01:23:15;8.90;;;2.30;;
16975;SDS011;8604;48.148;-1.786;2022-11-15T01:26:03;10.43;;;2.37;;
16975;SDS011;8604;48.148;-1.786;2022-11-15T01:28:51;11.27;;;2.30;;
16975;SDS011;8604;48.148;-1.786;2022-11-15T01:31:38;9.63;;;2.10;;
16975;SDS011;8604;48.148;-1.786;2022-11-15T01:34:25;8.23;;;2.03;;
16975;SDS011;8604;48.148;-1.786;2022-11-15T01:37:14;10.47;;;2.10;;
16975;SDS011;8604;48.148;-1.786;2022-11-15T01:40:01;10.23;;;2.27;;
16975;SDS011;8604;48.148;-1.786;2022-11-15T01:42:48;8.37;;;2.00;;
16975;SDS011;8604;48.148;-1.786;2022-11-15T01:45:35;11.97;;;2.13;;
16975;SDS011;8604;48.148;-1.786;2022-11-15T01:48:24;8.17;;;1.80;;
16975;SDS011;8604;48.148;-1.786;2022-11-15T01:51:17;12.50;;;2.30;;
16975;SDS011;8604;48.148;-1.786;2022-11-15T01:54:08;7.33;;;1.67;;
16975;SDS011;8604;48.148;-1.786;2022-11-15T01:56:59;9.37;;;2.00;;
16975;SDS011;8604;48.148;-1.786;2022-11-15T01:59:50;10.50;;;2.50;;
16975;SDS011;8604;48.148;-1.786;2022-11-15T02:02:37;8.60;;;2.00;;
16975;SDS011;8604;48.148;-1.786;2022-11-15T02:05:24;9.47;;;2.47;;
16975;SDS011;8604;48.148;-1.786;2022-11-15T02:08:12;8.27;;;2.00;;
16975;SDS011;8604;48.148;-1.786;2022-11-15T02:11:08;10.63;;;1.90;;
16975;SDS011;8604;48.148;-1.786;2022-11-15T02:13:55;9.40;;;2.17;;
16975;SDS011;8604;48.148;-1.786;2022-11-15T02:16:49;9.50;;;2.00;;
16975;SDS011;8604;48.148;-1.786;2022-11-15T02:19:54;6.83;;;1.70;;
16975;SDS011;8604;48.148;-1.786;2022-11-15T02:23:03;8.93;;;1.77;;
16975;SDS011;8604;48.148;-1.786;2022-11-15T02:26:07;7.70;;;1.40;;
16975;SDS011;8604;48.148;-1.786;2022-11-15T02:29:13;11.20;;;2.10;;
16975;SDS011;8604;48.148;-1.786;2022-11-15T02:32:14;9.00;;;2.30;;
16975;SDS011;8604;48.148;-1.786;2022-11-15T02:35:09;6.17;;;1.73;;
16975;SDS011;8604;48.148;-1.786;2022-11-15T02:38:04;10.50;;;1.90;;
16975;SDS011;8604;48.148;-1.786;2022-11-15T02:40:59;9.80;;;1.90;;
16975;SDS011;8604;48.148;-1.786;2022-11-15T02:43:51;9.07;;;2.03;;
16975;SDS011;8604;48.148;-1.786;2022-11-15T02:46:41;12.93;;;2.30;;
16975;SDS011;8604;48.148;-1.786;2022-11-15T02:49:51;9.13;;;2.30;;
16975;SDS011;8604;48.148;-1.786;2022-11-15T02:52:39;6.60;;;1.73;;
16975;SDS011;8604;48.148;-1.786;2022-11-15T02:55:26;11.93;;;2.20;;
16975;SDS011;8604;48.148;-1.786;2022-11-15T02:58:27;8.57;;;1.80;;
16975;SDS011;8604;48.148;-1.786;2022-11-15T03:01:31;10.80;;;1.90;;
16975;SDS011;8604;48.148;-1.786;2022-11-15T03:04:29;10.17;;;2.10;;
16975;SDS011;8604;48.148;-1.786;2022-11-15T03:07:28;9.83;;;2.10;;
16975;SDS011;8604;48.148;-1.786;2022-11-15T03:10:23;9.23;;;2.00;;
16975;SDS011;8604;48.148;-1.786;2022-11-15T03:13:19;10.20;;;1.90;;
16975;SDS011;8604;48.148;-1.786;2022-11-15T03:16:14;12.40;;;1.97;;
16975;SDS011;8604;48.148;-1.786;2022-11-15T03:19:09;9.43;;;1.70;;
16975;SDS011;8604;48.148;-1.786;2022-11-15T03:22:03;8.30;;;1.80;;
16975;SDS011;8604;48.148;-1.786;2022-11-15T03:24:54;8.93;;;1.70;;
16975;SDS011;8604;48.148;-1.786;2022-11-15T03:27:46;9.03;;;1.80;;
16975;SDS011;8604;48.148;-1.786;2022-11-15T03:30:36;9.07;;;1.90;;
16975;SDS011;8604;48.148;-1.786;2022-11-15T03:33:25;10.20;;;2.10;;
16975;SDS011;8604;48.148;-1.786;2022-11-15T03:36:16;10.70;;;2.03;;
16975;SDS011;8604;48.148;-1.786;2022-11-15T03:39:05;9.77;;;2.00;;
16975;SDS011;8604;48.148;-1.786;2022-11-15T03:42:01;9.23;;;2.00;;
16975;SDS011;8604;48.148;-1.786;2022-11-15T03:44:57;6.97;;;1.70;;
16975;SDS011;8604;48.148;-1.786;2022-11-15T03:47:48;8.90;;;1.90;;
16975;SDS011;8604;48.148;-1.786;2022-11-15T03:50:39;7.77;;;1.87;;
16975;SDS011;8604;48.148;-1.786;2022-11-15T03:53:27;10.43;;;2.17;;
16975;SDS011;8604;48.148;-1.786;2022-11-15T03:56:16;8.90;;;1.80;;
16975;SDS011;8604;48.148;-1.786;2022-11-15T03:59:05;8.80;;;1.77;;
16975;SDS011;8604;48.148;-1.786;2022-11-15T04:01:52;9.63;;;1.70;;
16975;SDS011;8604;48.148;-1.786;2022-11-15T04:04:39;10.73;;;2.10;;
16975;SDS011;8604;48.148;-1.786;2022-11-15T04:07:27;9.90;;;2.30;;
16975;SDS011;8604;48.148;-1.786;2022-11-15T04:10:14;10.40;;;2.03;;
16975;SDS011;8604;48.148;-1.786;2022-11-15T04:13:02;12.90;;;2.13;;
16975;SDS011;8604;48.148;-1.786;2022-11-15T04:15:50;9.30;;;1.73;;
16975;SDS011;8604;48.148;-1.786;2022-11-15T04:18:38;9.47;;;2.07;;
16975;SDS011;8604;48.148;-1.786;2022-11-15T04:21:25;8.20;;;2.00;;
16975;SDS011;8604;48.148;-1.786;2022-11-15T04:24:29;8.00;;;1.77;;
16975;SDS011;8604;48.148;-1.786;2022-11-15T04:27:16;9.03;;;2.00;;
16975;SDS011;8604;48.148;-1.786;2022-11-15T04:30:04;10.53;;;2.17;;
16975;SDS011;8604;48.148;-1.786;2022-11-15T04:32:53;12.00;;;2.10;;
16975;SDS011;8604;48.148;-1.786;2022-11-15T04:39:14;10.33;;;2.07;;
16975;SDS011;8604;48.148;-1.786;2022-11-15T04:42:17;10.30;;;2.10;;
16975;SDS011;8604;48.148;-1.786;2022-11-15T04:45:04;9.07;;;2.10;;
16975;SDS011;8604;48.148;-1.786;2022-11-15T04:47:53;10.07;;;2.13;;
16975;SDS011;8604;48.148;-1.786;2022-11-15T04:50:40;12.00;;;2.47;;
16975;SDS011;8604;48.148;-1.786;2022-11-15T04:53:27;9.47;;;2.30;;
16975;SDS011;8604;48.148;-1.786;2022-11-15T04:56:15;12.03;;;2.13;;
16975;SDS011;8604;48.148;-1.786;2022-11-15T04:59:02;12.53;;;2.40;;
16975;SDS011;8604;48.148;-1.786;2022-11-15T05:01:50;10.57;;;2.10;;
16975;SDS011;8604;48.148;-1.786;2022-11-15T05:04:39;12.27;;;2.30;;
16975;SDS011;8604;48.148;-1.786;2022-11-15T05:07:24;9.87;;;2.20;;
16975;SDS011;8604;48.148;-1.786;2022-11-15T05:10:11;8.70;;;1.97;;
16975;SDS011;8604;48.148;-1.786;2022-11-15T05:12:59;11.87;;;2.20;;
16975;SDS011;8604;48.148;-1.786;2022-11-15T05:15:48;8.87;;;2.40;;
16975;SDS011;8604;48.148;-1.786;2022-11-15T05:18:35;10.23;;;2.27;;
16975;SDS011;8604;48.148;-1.786;2022-11-15T05:21:27;9.20;;;2.00;;
16975;SDS011;8604;48.148;-1.786;2022-11-15T05:24:14;9.73;;;2.13;;
16975;SDS011;8604;48.148;-1.786;2022-11-15T05:27:01;9.93;;;2.27;;
16975;SDS011;8604;48.148;-1.786;2022-11-15T05:29:50;9.90;;;2.13;;
16975;SDS011;8604;48.148;-1.786;2022-11-15T05:32:38;7.17;;;2.07;;
16975;SDS011;8604;48.148;-1.786;2022-11-15T05:35:27;10.27;;;2.20;;
16975;SDS011;8604;48.148;-1.786;2022-11-15T05:38:19;12.13;;;2.13;;
16975;SDS011;8604;48.148;-1.786;2022-11-15T05:41:22;8.90;;;2.40;;
16975;SDS011;8604;48.148;-1.786;2022-11-15T05:44:19;6.80;;;2.00;;
16975;SDS011;8604;48.148;-1.786;2022-11-15T05:47:09;8.27;;;1.80;;
16975;SDS011;8604;48.148;-1.786;2022-11-15T05:49:59;11.03;;;2.30;;
16975;SDS011;8604;48.148;-1.786;2022-11-15T05:52:47;6.83;;;2.13;;
16975;SDS011;8604;48.148;-1.786;2022-11-15T05:55:36;7.87;;;2.27;;
16975;SDS011;8604;48.148;-1.786;2022-11-15T05:58:24;9.50;;;2.23;;
16975;SDS011;8604;48.148;-1.786;2022-11-15T06:01:12;8.23;;;2.40;;
16975;SDS011;8604;48.148;-1.786;2022-11-15T06:04:03;10.87;;;2.30;;
16975;SDS011;8604;48.148;-1.786;2022-11-15T06:06:51;7.93;;;2.10;;
16975;SDS011;8604;48.148;-1.786;2022-11-15T06:09:44;10.07;;;2.80;;
16975;SDS011;8604;48.148;-1.786;2022-11-15T06:12:34;11.60;;;3.10;;
16975;SDS011;8604;48.148;-1.786;2022-11-15T06:15:21;9.27;;;2.93;;
16975;SDS011;8604;48.148;-1.786;2022-11-15T06:18:09;10.27;;;2.70;;
16975;SDS011;8604;48.148;-1.786;2022-11-15T06:20:58;14.53;;;2.87;;
16975;SDS011;8604;48.148;-1.786;2022-11-15T06:23:46;7.03;;;2.63;;
16975;SDS011;8604;48.148;-1.786;2022-11-15T06:26:33;7.73;;;2.60;;
16975;SDS011;8604;48.148;-1.786;2022-11-15T06:29:25;7.80;;;2.57;;
16975;SDS011;8604;48.148;-1.786;2022-11-15T06:32:21;11.43;;;3.10;;
16975;SDS011;8604;48.148;-1.786;2022-11-15T06:45:00;7.90;;;2.80;;
16975;SDS011;8604;48.148;-1.786;2022-11-15T22:33:05;7.80;;;2.40;;
16975;SDS011;8604;48.148;-1.786;2022-11-15T22:35:36;12.17;;;2.67;;
16975;SDS011;8604;48.148;-1.786;2022-11-15T22:38:05;9.63;;;2.60;;
16975;SDS011;8604;48.148;-1.786;2022-11-15T22:40:33;7.90;;;2.20;;
16975;SDS011;8604;48.148;-1.786;2022-11-15T22:43:02;10.63;;;2.40;;
16975;SDS011;8604;48.148;-1.786;2022-11-15T22:45:32;8.70;;;2.50;;
16975;SDS011;8604;48.148;-1.786;2022-11-15T22:48:01;9.53;;;2.50;;
16975;SDS011;8604;48.148;-1.786;2022-11-15T22:50:31;12.47;;;3.10;;
16975;SDS011;8604;48.148;-1.786;2022-11-15T22:53:00;8.83;;;2.60;;
16975;SDS011;8604;48.148;-1.786;2022-11-15T22:55:28;10.03;;;2.77;;
16975;SDS011;8604;48.148;-1.786;2022-11-15T22:57:57;10.73;;;2.57;;
16975;SDS011;8604;48.148;-1.786;2022-11-15T23:00:25;10.10;;;2.40;;
16975;SDS011;8604;48.148;-1.786;2022-11-15T23:02:54;5.47;;;2.20;;
16975;SDS011;8604;48.148;-1.786;2022-11-15T23:05:22;9.93;;;2.93;;
16975;SDS011;8604;48.148;-1.786;2022-11-15T23:07:52;12.70;;;4.03;;
16975;SDS011;8604;48.148;-1.786;2022-11-15T23:10:20;11.80;;;4.50;;
16975;SDS011;8604;48.148;-1.786;2022-11-15T23:13:09;14.03;;;4.17;;
16975;SDS011;8604;48.148;-1.786;2022-11-15T23:15:45;10.53;;;3.80;;
16975;SDS011;8604;48.148;-1.786;2022-11-15T23:18:33;14.37;;;3.70;;
16975;SDS011;8604;48.148;-1.786;2022-11-15T23:21:09;10.43;;;2.87;;
16975;SDS011;8604;48.148;-1.786;2022-11-15T23:23:40;11.23;;;3.27;;
16975;SDS011;8604;48.148;-1.786;2022-11-15T23:26:07;10.43;;;2.80;;
16975;SDS011;8604;48.148;-1.786;2022-11-15T23:28:36;11.77;;;2.80;;
16975;SDS011;8604;48.148;-1.786;2022-11-15T23:31:05;9.67;;;3.27;;
16975;SDS011;8604;48.148;-1.786;2022-11-15T23:33:51;13.37;;;3.93;;
16975;SDS011;8604;48.148;-1.786;2022-11-15T23:36:26;13.07;;;4.00;;
16975;SDS011;8604;48.148;-1.786;2022-11-15T23:38:57;13.30;;;3.73;;
16975;SDS011;8604;48.148;-1.786;2022-11-15T23:41:25;10.63;;;3.33;;
16975;SDS011;8604;48.148;-1.786;2022-11-15T23:43:54;9.93;;;3.07;;
16975;SDS011;8604;48.148;-1.786;2022-11-15T23:46:22;9.70;;;3.13;;
16975;SDS011;8604;48.148;-1.786;2022-11-15T23:48:50;13.30;;;2.87;;
16975;SDS011;8604;48.148;-1.786;2022-11-15T23:51:19;12.27;;;3.20;;
16975;SDS011;8604;48.148;-1.786;2022-11-15T23:53:47;12.40;;;2.90;;
16975;SDS011;8604;48.148;-1.786;2022-11-15T23:56:18;10.37;;;2.83;;
16975;SDS011;8604;48.148;-1.786;2022-11-15T23:58:47;8.37;;;2.60;;
